Time;durP1;ratioP1;P1;durP2;ratioP2;P2;SDS_P1;SDS_P2;PMS_P1;PMS_P2;Temp;Humidity;BMP_temperature;BMP_pressure;BME280_temperature;BME280_humidity;BME280_pressure;Samples;Min_cycle;Max_cycle;Signal;HPM_P1;HPM_P2
2023/03/05 00:01:33;;;;;;;0.10;0.10;;;;;;;6.95;55.83;102194.53;7354964;19;20098;-54
2023/03/05 00:03:59;;;;;;;0.00;0.00;;;;;;;6.98;55.40;102198.03;7356580;19;20013;-56
2023/03/05 00:06:27;;;;;;;0.10;0.10;;;;;;;6.82;55.50;102170.06;7354549;19;20070;-56
2023/03/05 00:08:53;;;;;;;0.10;0.10;;;;;;;6.61;55.70;102133.38;7353477;19;20010;-57
2023/03/05 00:11:19;;;;;;;0.00;0.00;;;;;;;6.80;55.39;102155.34;7357978;19;20018;-56
2023/03/05 00:13:45;;;;;;;0.10;0.10;;;;;;;6.85;55.60;102170.13;7352435;19;20019;-56
2023/03/05 00:16:13;;;;;;;0.08;0.08;;;;;;;6.98;55.82;102189.38;7356536;19;20558;-56
2023/03/05 00:18:39;;;;;;;;;;;;;;;6.99;54.57;102180.72;7354897;19;20864;-56
2023/03/05 00:21:16;;;;;;;0.10;0.10;;;;;;;6.95;55.30;102172.03;7358679;19;19948;-56
2023/03/05 00:23:41;;;;;;;0.00;0.00;;;;;;;6.79;55.34;102154.44;7349441;19;20054;-56
2023/03/05 00:26:06;;;;;;;0.10;0.10;;;;;;;6.90;55.81;102171.09;7357166;19;20652;-56
2023/03/05 00:28:32;;;;;;;0.08;0.08;;;;;;;6.75;55.93;102150.06;7347279;19;20114;-57
2023/03/05 00:31:01;;;;;;;0.10;0.10;;;;;;;6.87;55.49;102160.63;7357348;19;20014;-56
2023/03/05 00:33:27;;;;;;;0.00;0.00;;;;;;;6.86;55.68;102150.25;7354415;19;20014;-55
2023/03/05 00:35:53;;;;;;;0.00;0.00;;;;;;;6.84;55.83;102142.41;7354897;19;20344;-55
2023/03/05 00:38:18;;;;;;;0.00;0.00;;;;;;;6.82;56.36;102133.72;7352660;19;20011;-57
2023/03/05 00:40:44;;;;;;;0.00;0.00;;;;;;;6.69;55.79;102108.41;7355931;19;20014;-56
2023/03/05 00:43:09;;;;;;;0.00;0.00;;;;;;;6.80;56.14;102129.38;7350401;19;20011;-55
2023/03/05 00:45:35;;;;;;;0.00;0.00;;;;;;;6.68;56.28;102112.72;7354306;19;20006;-57
2023/03/05 00:48:02;;;;;;;0.08;0.08;;;;;;;6.83;55.96;102138.06;7354086;19;20018;-56
2023/03/05 00:50:28;;;;;;;0.00;0.00;;;;;;;6.83;56.35;102122.47;7353563;19;20045;-57
2023/03/05 00:52:53;;;;;;;0.00;0.00;;;;;;;6.82;56.11;102127.66;7354737;19;20007;-57
2023/03/05 00:55:19;;;;;;;0.10;0.10;;;;;;;6.68;55.89;102117.91;7346282;19;20035;-57
2023/03/05 00:57:44;;;;;;;0.10;0.10;;;;;;;6.67;56.46;102118.78;7352174;19;20023;-56
2023/03/05 01:00:12;;;;;;;0.00;0.00;;;;;;;6.68;56.10;102119.66;7351867;19;20026;-58
2023/03/05 01:02:37;;;;;;;0.00;0.00;;;;;;;6.42;56.13;102080.31;7353244;19;20017;-55
2023/03/05 01:05:03;;;;;;;0.10;0.10;;;;;;;6.74;56.33;102137.91;7353087;19;20011;-55
2023/03/05 01:07:28;;;;;;;0.00;0.00;;;;;;;6.73;56.23;102138.78;7350521;19;20017;-54
2023/03/05 01:09:54;;;;;;;0.00;0.00;;;;;;;6.72;56.13;102134.44;7351163;19;20033;-56
2023/03/05 01:12:19;;;;;;;0.05;0.05;;;;;;;6.72;56.45;102148.28;7351378;19;20038;-56
2023/03/05 01:14:44;;;;;;;0.00;0.00;;;;;;;6.71;56.47;102140.47;7352197;19;20064;-57
2023/03/05 01:17:10;;;;;;;0.00;0.00;;;;;;;6.67;56.09;102136.06;7350433;19;20114;-56
2023/03/05 01:19:35;;;;;;;0.00;0.00;;;;;;;6.61;56.40;102123.00;7351312;19;20031;-55
2023/03/05 01:22:01;;;;;;;0.00;0.00;;;;;;;6.70;56.29;102123.16;7350728;19;20017;-54
2023/03/05 01:24:26;;;;;;;0.05;0.05;;;;;;;6.67;56.60;102121.38;7339415;19;20109;-56
2023/03/05 01:26:52;;;;;;;0.03;0.03;;;;;;;6.67;56.74;102123.09;7344798;19;20013;-56
2023/03/05 01:29:17;;;;;;;0.10;0.10;;;;;;;6.72;56.30;102122.31;7347063;19;20023;-56
2023/03/05 01:31:42;;;;;;;0.00;0.00;;;;;;;6.71;56.29;102124.91;7327594;19;20026;-56
2023/03/05 01:34:08;;;;;;;0.10;0.10;;;;;;;6.72;56.38;102126.63;7353333;19;20869;-56
2023/03/05 01:36:33;;;;;;;0.10;0.10;;;;;;;6.72;56.18;102124.03;7352425;19;20014;-56
2023/03/05 01:38:59;;;;;;;0.00;0.00;;;;;;;6.67;56.12;102117.91;7346899;19;20074;-57
2023/03/05 01:41:25;;;;;;;0.10;0.10;;;;;;;6.61;56.27;102113.50;7350886;19;20014;-56
2023/03/05 01:43:51;;;;;;;0.00;0.00;;;;;;;6.52;56.80;102094.31;7347139;19;20090;-56
2023/03/05 01:46:35;;;;;;;0.10;0.10;;;;;;;6.69;55.98;102121.38;7351444;19;20012;-56
2023/03/05 01:49:13;;;;;;;0.00;0.00;;;;;;;6.61;56.63;102105.72;7351610;19;20601;-56
2023/03/05 01:51:45;;;;;;;0.10;0.10;;;;;;;6.66;56.40;102123.97;7347771;19;20012;-56
2023/03/05 01:54:14;;;;;;;0.00;0.00;;;;;;;6.45;56.85;102086.44;7353638;19;20019;-56
2023/03/05 01:56:40;;;;;;;0.10;0.10;;;;;;;6.64;56.18;102120.44;7350450;19;20010;-57
2023/03/05 01:59:07;;;;;;;0.10;0.10;;;;;;;6.58;56.62;102104.78;7351532;19;20028;-55
2023/03/05 02:01:38;;;;;;;0.00;0.00;;;;;;;6.65;56.20;102110.09;7352606;19;20593;-56
2023/03/05 02:04:05;;;;;;;0.00;0.00;;;;;;;6.48;56.43;102081.25;7350321;19;20681;-56
2023/03/05 02:06:31;;;;;;;0.00;0.00;;;;;;;6.52;56.85;102094.31;7351306;19;20511;-57
2023/03/05 02:08:56;;;;;;;0.00;0.00;;;;;;;6.53;56.26;102093.44;7350592;19;20022;-56
2023/03/05 02:11:22;;;;;;;0.10;0.10;;;;;;;6.59;56.47;102099.63;7350968;19;20030;-56
2023/03/05 02:13:47;;;;;;;0.00;0.00;;;;;;;6.54;56.70;102095.19;7350974;19;20014;-56
2023/03/05 02:16:13;;;;;;;0.00;0.00;;;;;;;6.47;56.49;102082.13;7353005;19;20071;-58
2023/03/05 02:18:38;;;;;;;0.00;0.00;;;;;;;6.55;56.35;102094.38;7348618;19;20624;-56
2023/03/05 02:21:08;;;;;;;0.10;0.10;;;;;;;6.56;56.48;102083.13;7353258;19;20033;-56
2023/03/05 02:23:36;;;;;;;0.10;0.10;;;;;;;6.51;56.98;102075.28;7349461;19;20252;-56
2023/03/05 02:26:06;;;;;;;;;;;;;;;6.59;55.53;102083.16;7352202;19;20006;-56
2023/03/05 02:28:36;;;;;;;0.00;0.00;;;;;;;6.58;55.80;102068.44;7351141;19;19934;-55
2023/03/05 02:31:08;;;;;;;0.00;0.00;;;;;;;6.55;56.42;102071.00;7351352;19;20029;-57
2023/03/05 02:33:34;;;;;;;0.10;0.10;;;;;;;6.45;56.61;102054.41;7349981;19;20582;-56
2023/03/05 02:35:59;;;;;;;0.00;0.00;;;;;;;6.48;56.48;102063.09;7345568;19;20094;-56
2023/03/05 02:38:25;;;;;;;0.00;0.00;;;;;;;6.46;56.40;102057.03;7351044;19;20361;-56
2023/03/05 02:40:50;;;;;;;0.00;0.00;;;;;;;6.37;56.57;102043.91;7351850;19;20483;-57
2023/03/05 02:43:15;;;;;;;0.00;0.00;;;;;;;6.32;56.33;102027.38;7351353;19;20010;-56
2023/03/05 02:45:41;;;;;;;0.00;0.00;;;;;;;6.40;56.58;102046.56;7348993;19;20010;-57
2023/03/05 02:48:06;;;;;;;0.00;0.00;;;;;;;6.43;56.77;102044.00;7350027;19;20753;-56
2023/03/05 02:50:33;;;;;;;0.10;0.10;;;;;;;6.39;56.70;102034.44;7351247;19;20014;-56
2023/03/05 02:52:58;;;;;;;0.05;0.05;;;;;;;6.30;56.56;102018.72;7346304;19;20613;-56
2023/03/05 02:55:24;;;;;;;0.00;0.00;;;;;;;6.43;57.04;102028.41;7350586;19;20007;-56
2023/03/05 02:57:50;;;;;;;0.10;0.10;;;;;;;6.43;56.79;102025.81;7336559;19;20854;-55
2023/03/05 03:00:16;;;;;;;0.00;0.00;;;;;;;6.37;56.83;102017.94;7352065;19;20010;-54
2023/03/05 03:02:41;;;;;;;0.10;0.10;;;;;;;6.40;56.94;102017.16;7352058;19;20026;-56
2023/03/05 03:05:07;;;;;;;0.00;0.00;;;;;;;6.39;56.89;102013.69;7350242;19;20015;-54
2023/03/05 03:07:34;;;;;;;0.00;0.00;;;;;;;6.32;56.71;101998.84;7353098;19;20105;-56
2023/03/05 03:10:00;;;;;;;0.00;0.00;;;;;;;6.39;56.93;101998.13;7352985;19;20014;-56
2023/03/05 03:12:25;;;;;;;0.10;0.10;;;;;;;6.36;57.28;101992.88;7353492;19;20034;-56
2023/03/05 03:14:50;;;;;;;0.00;0.00;;;;;;;6.39;56.48;101992.06;7349071;19;20014;-56
2023/03/05 03:17:17;;;;;;;0.10;0.10;;;;;;;6.23;57.04;101959.78;7353519;19;20014;-56
2023/03/05 03:19:43;;;;;;;0.00;0.00;;;;;;;6.38;56.90;101980.78;7352371;19;20703;-56
2023/03/05 03:22:10;;;;;;;0.00;0.00;;;;;;;6.39;56.80;101976.50;7356048;19;20022;-56
2023/03/05 03:24:37;;;;;;;0.05;0.05;;;;;;;6.38;56.94;101985.09;7355681;19;20792;-56
2023/03/05 03:27:03;;;;;;;0.00;0.00;;;;;;;6.03;57.26;101914.53;7358938;19;20025;-56
2023/03/05 03:29:29;;;;;;;0.00;0.00;;;;;;;5.94;56.93;101890.22;7354209;19;19999;-55
2023/03/05 03:31:54;;;;;;;0.10;0.10;;;;;;;6.25;57.23;101937.38;7358575;19;20010;-57
2023/03/05 03:34:20;;;;;;;0.00;0.00;;;;;;;6.33;57.18;101953.91;7351742;19;20585;-56
2023/03/05 03:36:47;;;;;;;0.00;0.00;;;;;;;6.20;57.45;101920.84;7354237;19;20018;-55
2023/03/05 03:39:13;;;;;;;0.00;0.00;;;;;;;6.33;57.21;101948.69;7356466;19;20029;-56
2023/03/05 03:41:51;;;;;;;0.00;0.00;;;;;;;6.23;57.27;101916.59;7361040;19;20098;-56
2023/03/05 03:44:17;;;;;;;0.00;0.00;;;;;;;6.32;56.94;101936.59;7357959;19;20021;-56
2023/03/05 03:46:47;;;;;;;0.00;0.00;;;;;;;6.31;57.26;101932.25;7358258;19;20302;-57
2023/03/05 03:49:31;;;;;;;0.10;0.10;;;;;;;6.27;56.88;101925.28;7356713;19;21834;-56
2023/03/05 03:51:57;;;;;;;0.00;0.00;;;;;;;6.20;57.29;101906.16;7357381;19;20014;-56
2023/03/05 03:54:22;;;;;;;0.00;0.00;;;;;;;6.27;56.79;101904.53;7358239;19;22614;-55
2023/03/05 03:56:47;;;;;;;0.00;0.00;;;;;;;6.26;57.48;101904.50;7357861;19;20019;-56
2023/03/05 03:59:13;;;;;;;0.00;0.00;;;;;;;6.23;57.25;101902.72;7353110;19;20007;-56
2023/03/05 04:01:39;;;;;;;0.00;0.00;;;;;;;6.13;57.44;101880.09;7358303;19;20007;-56
2023/03/05 04:04:05;;;;;;;0.00;0.00;;;;;;;6.23;57.43;101897.53;7335842;19;20010;-55
2023/03/05 04:06:31;;;;;;;0.00;0.00;;;;;;;6.23;57.14;101906.22;7346715;19;20011;-56
2023/03/05 04:08:57;;;;;;;0.00;0.00;;;;;;;5.83;57.16;101839.00;7357317;19;20027;-56
2023/03/05 04:11:23;;;;;;;0.00;0.00;;;;;;;6.18;57.53;101886.22;7354240;19;20014;-56
2023/03/05 04:13:48;;;;;;;0.10;0.10;;;;;;;6.17;57.75;101881.91;7358036;19;20006;-56
2023/03/05 04:16:15;;;;;;;0.10;0.10;;;;;;;6.20;57.78;101881.94;7352900;19;20018;-56
2023/03/05 04:18:41;;;;;;;0.10;0.10;;;;;;;6.06;56.98;101865.31;7358710;19;20011;-56
2023/03/05 04:21:07;;;;;;;0.00;0.00;;;;;;;6.22;57.01;101885.44;7341109;19;20354;-56
2023/03/05 04:23:32;;;;;;;0.00;0.00;;;;;;;6.15;57.41;101886.19;7358933;19;20424;-56
2023/03/05 04:25:58;;;;;;;0.00;0.00;;;;;;;6.18;57.53;101899.19;7351704;19;20015;-56
2023/03/05 04:28:23;;;;;;;0.00;0.00;;;;;;;6.17;57.78;101897.47;7356310;19;20134;-55
2023/03/05 04:30:49;;;;;;;0.00;0.00;;;;;;;6.07;57.88;101880.88;7357136;19;20042;-56
2023/03/05 04:33:14;;;;;;;0.10;0.10;;;;;;;6.15;57.71;101901.75;7355742;19;20015;-56
2023/03/05 04:35:40;;;;;;;0.00;0.00;;;;;;;6.08;57.67;101880.03;7356234;19;20086;-56
2023/03/05 04:38:05;;;;;;;0.10;0.10;;;;;;;6.14;57.54;101889.66;7358288;19;20581;-56
2023/03/05 04:40:31;;;;;;;0.03;0.03;;;;;;;6.11;57.40;101881.81;7355693;19;20014;-56
2023/03/05 04:42:56;;;;;;;0.10;0.10;;;;;;;6.10;57.58;101874.88;7358108;19;20470;-56
2023/03/05 04:45:22;;;;;;;0.00;0.00;;;;;;;6.07;57.80;101874.84;7355852;19;20037;-54
2023/03/05 04:47:47;;;;;;;0.00;0.00;;;;;;;6.07;57.46;101867.94;7357509;19;20021;-56
2023/03/05 04:50:13;;;;;;;0.10;0.10;;;;;;;6.10;57.88;101869.72;7355234;19;20021;-56
2023/03/05 04:52:43;;;;;;;0.03;0.03;;;;;;;6.09;57.74;101878.34;7358499;19;20003;-55
2023/03/05 04:55:11;;;;;;;0.10;0.10;;;;;;;5.90;58.09;101846.03;7356795;19;20772;-56
2023/03/05 04:57:36;;;;;;;0.10;0.10;;;;;;;5.75;58.03;101822.47;7353753;19;20039;-55
2023/03/05 05:00:05;;;;;;;0.00;0.00;;;;;;;5.95;57.51;101852.19;7356309;19;20412;-56
2023/03/05 05:02:32;;;;;;;0.00;0.00;;;;;;;6.01;57.90;101859.19;7357658;19;20010;-56
2023/03/05 05:04:57;;;;;;;0.00;0.00;;;;;;;5.91;57.82;101848.69;7353586;19;20011;-54
2023/03/05 05:07:23;;;;;;;0.00;0.00;;;;;;;6.03;58.43;101868.72;7357949;19;20035;-56
2023/03/05 05:09:48;;;;;;;0.00;0.00;;;;;;;6.05;58.04;101866.19;7356448;19;20046;-56
2023/03/05 05:12:13;;;;;;;0.00;0.00;;;;;;;6.01;57.98;101843.63;7356319;19;20019;-55
2023/03/05 05:14:39;;;;;;;0.00;0.00;;;;;;;6.02;57.89;101856.63;7354401;19;20014;-55
2023/03/05 05:17:04;;;;;;;0.00;0.00;;;;;;;6.04;58.09;101859.25;7357717;19;20011;-57
2023/03/05 05:19:31;;;;;;;0.00;0.00;;;;;;;5.98;57.80;101840.16;7356125;19;20025;-55
2023/03/05 05:21:57;;;;;;;0.00;0.00;;;;;;;5.79;58.23;101812.19;7356289;19;20386;-56
2023/03/05 05:24:22;;;;;;;0.00;0.00;;;;;;;5.93;58.01;101826.25;7355256;19;20006;-56
2023/03/05 05:26:48;;;;;;;0.00;0.00;;;;;;;5.97;58.36;101830.63;7353491;19;20018;-56
2023/03/05 05:29:13;;;;;;;0.00;0.00;;;;;;;5.66;58.46;101768.78;7353393;19;20014;-56
2023/03/05 05:31:39;;;;;;;0.00;0.00;;;;;;;5.88;58.26;101814.03;7356178;19;20605;-56
2023/03/05 05:34:04;;;;;;;0.00;0.00;;;;;;;5.92;58.37;101815.84;7352615;19;20014;-56
2023/03/05 05:36:29;;;;;;;0.00;0.00;;;;;;;5.87;58.48;101804.50;7356583;19;20019;-57
2023/03/05 05:38:55;;;;;;;0.00;0.00;;;;;;;5.97;58.18;101828.03;7355806;19;20110;-56
2023/03/05 05:41:20;;;;;;;0.00;0.00;;;;;;;5.93;58.22;101823.66;7353412;19;20015;-56
2023/03/05 05:43:47;;;;;;;0.00;0.00;;;;;;;6.00;58.66;101841.91;7356639;19;20014;-55
2023/03/05 05:46:16;;;;;;;0.10;0.10;;;;;;;5.98;58.45;101834.97;7352189;19;20006;-56
2023/03/05 05:48:42;;;;;;;0.00;0.00;;;;;;;5.97;58.48;101822.84;7358451;19;24127;-56
2023/03/05 05:51:11;;;;;;;0.00;0.00;;;;;;;6.01;58.80;101822.91;7350462;19;20038;-56
2023/03/05 05:53:37;;;;;;;0.00;0.00;;;;;;;5.80;58.66;101784.56;7356285;19;20019;-56
2023/03/05 05:56:04;;;;;;;0.00;0.00;;;;;;;5.97;58.39;101817.66;7349670;19;20021;-56
2023/03/05 05:58:29;;;;;;;0.00;0.00;;;;;;;6.00;58.58;101815.97;7352928;19;20010;-56
2023/03/05 06:00:54;;;;;;;0.03;0.03;;;;;;;5.96;58.59;101808.13;7353713;19;20886;-56
2023/03/05 06:03:20;;;;;;;0.00;0.00;;;;;;;5.94;58.35;101798.63;7355714;19;20070;-56
2023/03/05 06:05:46;;;;;;;0.10;0.10;;;;;;;5.95;58.32;101801.22;7348482;19;20600;-57
2023/03/05 06:08:11;;;;;;;0.00;0.00;;;;;;;5.79;57.97;101770.72;7353931;19;20015;-55
2023/03/05 06:10:37;;;;;;;0.00;0.00;;;;;;;5.89;58.49;101788.16;7349691;19;20002;-56
2023/03/05 06:13:03;;;;;;;0.03;0.03;;;;;;;5.93;57.72;101789.97;7352612;19;20013;-56
2023/03/05 06:15:28;;;;;;;0.03;0.03;;;;;;;5.94;58.70;101794.28;7349469;19;20015;-56
2023/03/05 06:17:54;;;;;;;0.10;0.10;;;;;;;5.82;58.79;101775.06;7351570;19;20023;-56
2023/03/05 06:20:19;;;;;;;0.00;0.00;;;;;;;5.88;58.88;101788.09;7351517;19;20661;-56
2023/03/05 06:22:45;;;;;;;0.00;0.00;;;;;;;5.89;58.72;101792.47;7355379;19;20588;-55
2023/03/05 06:25:10;;;;;;;0.00;0.00;;;;;;;5.87;58.52;101779.44;7352226;19;20010;-56
2023/03/05 06:27:37;;;;;;;0.10;0.10;;;;;;;5.87;58.77;101778.59;7353210;19;20018;-54
2023/03/05 06:30:04;;;;;;;0.10;0.10;;;;;;;5.89;58.33;101782.97;7351452;19;20014;-56
2023/03/05 06:32:29;;;;;;;0.00;0.00;;;;;;;5.46;59.16;101704.59;7353750;19;20003;-56
2023/03/05 06:34:54;;;;;;;0.00;0.00;;;;;;;5.84;58.85;101768.19;7354230;19;20002;-55
2023/03/05 06:37:20;;;;;;;0.08;0.08;;;;;;;5.82;58.54;101762.97;7353193;19;20007;-56
2023/03/05 06:39:45;;;;;;;0.10;0.10;;;;;;;5.84;58.55;101763.88;7353261;19;20013;-55
2023/03/05 06:42:11;;;;;;;0.00;0.00;;;;;;;5.78;59.02;101753.44;7353468;19;20010;-55
2023/03/05 06:44:39;;;;;;;0.00;0.00;;;;;;;5.81;59.24;101756.06;7349892;19;20035;-56
2023/03/05 06:47:05;;;;;;;0.00;0.00;;;;;;;5.82;59.35;101755.19;7352708;19;20475;-55
2023/03/05 06:49:31;;;;;;;0.10;0.10;;;;;;;5.81;59.11;101755.19;7355290;19;20039;-56
2023/03/05 06:51:56;;;;;;;0.10;0.10;;;;;;;5.67;59.32;101734.25;7350044;19;21228;-56
2023/03/05 06:54:22;;;;;;;0.10;0.10;;;;;;;5.79;59.12;101749.13;7350265;19;20072;-57
2023/03/05 06:56:47;;;;;;;0.00;0.00;;;;;;;5.55;59.21;101719.41;7350683;19;20015;-56
2023/03/05 06:59:14;;;;;;;0.10;0.10;;;;;;;5.82;59.21;101759.50;7345586;19;20038;-56
2023/03/05 07:01:40;;;;;;;0.00;0.00;;;;;;;5.42;59.32;101697.66;7353763;19;20015;-56
2023/03/05 07:04:06;;;;;;;0.00;0.00;;;;;;;5.65;59.48;101735.97;7353017;19;20016;-55
2023/03/05 07:06:34;;;;;;;0.03;0.03;;;;;;;5.82;59.30;101770.75;7350423;19;20729;-56
2023/03/05 07:09:02;;;;;;;0.00;0.00;;;;;;;5.73;59.47;101752.50;7348304;19;20500;-57
2023/03/05 07:11:28;;;;;;;0.10;0.10;;;;;;;5.82;59.89;101765.56;7353537;19;20007;-56
2023/03/05 07:13:53;;;;;;;0.00;0.00;;;;;;;5.44;59.37;101701.13;7346217;19;20018;-55
2023/03/05 07:16:21;;;;;;;0.00;0.00;;;;;;;5.85;59.91;101765.63;7351349;19;20007;-56
2023/03/05 07:18:48;;;;;;;0.00;0.00;;;;;;;5.73;59.46;101736.94;7352474;19;20006;-56
2023/03/05 07:21:19;;;;;;;0.10;0.10;;;;;;;5.88;59.20;101759.59;7350558;19;20037;-57
2023/03/05 07:23:44;;;;;;;0.10;0.10;;;;;;;5.87;58.74;101758.72;7348547;19;20026;-57
2023/03/05 07:26:10;;;;;;;0.00;0.00;;;;;;;5.90;59.10;101753.59;7350468;19;21138;-55
2023/03/05 07:28:36;;;;;;;0.10;0.10;;;;;;;5.75;58.79;101727.47;7347476;19;20026;-57
2023/03/05 07:31:05;;;;;;;0.00;0.00;;;;;;;5.89;58.88;101744.06;7349939;19;20010;-56
2023/03/05 07:33:31;;;;;;;0.00;0.00;;;;;;;5.71;59.85;101731.72;7351827;19;20018;-56
2023/03/05 07:35:57;;;;;;;0.00;0.00;;;;;;;5.84;59.60;101745.72;7351868;19;20894;-56
2023/03/05 07:38:22;;;;;;;0.00;0.00;;;;;;;5.69;59.40;101720.47;7350458;19;20011;-56
2023/03/05 07:40:49;;;;;;;0.00;0.00;;;;;;;5.83;59.86;101751.78;7351637;19;20018;-56
2023/03/05 07:43:15;;;;;;;0.00;0.00;;;;;;;5.65;59.61;101723.88;7350966;19;20792;-56
2023/03/05 07:45:42;;;;;;;0.00;0.00;;;;;;;5.85;59.44;101750.06;7351387;19;20494;-55
2023/03/05 07:48:12;;;;;;;0.00;0.00;;;;;;;5.86;59.36;101741.44;7345878;19;20386;-56
2023/03/05 07:50:38;;;;;;;0.00;0.00;;;;;;;5.86;59.05;101744.03;7350134;19;20018;-55
2023/03/05 07:53:03;;;;;;;0.10;0.10;;;;;;;5.83;59.75;101730.13;7347793;19;20010;-56
2023/03/05 07:55:29;;;;;;;0.10;0.10;;;;;;;5.81;59.87;101724.94;7345577;19;20011;-56
2023/03/05 07:57:54;;;;;;;0.00;0.00;;;;;;;5.70;58.96;101700.63;7347982;19;20015;-56
2023/03/05 08:00:20;;;;;;;0.10;0.10;;;;;;;5.90;59.10;101725.06;7349927;19;20447;-56
2023/03/05 08:02:46;;;;;;;0.10;0.10;;;;;;;5.84;59.55;101714.63;7353570;19;20015;-56
2023/03/05 08:05:11;;;;;;;0.05;0.05;;;;;;;5.87;59.80;101722.44;7351096;19;20506;-55
2023/03/05 08:07:36;;;;;;;0.10;0.10;;;;;;;5.94;59.74;101713.94;7356654;19;20006;-56
2023/03/05 08:10:03;;;;;;;0.00;0.00;;;;;;;5.78;59.66;101688.63;7355972;19;20770;-56
2023/03/05 08:12:29;;;;;;;0.10;0.10;;;;;;;5.85;59.88;101698.22;7353956;19;20569;-55
2023/03/05 08:14:54;;;;;;;0.03;0.03;;;;;;;5.65;59.89;101659.09;7357692;19;20014;-56
2023/03/05 08:17:19;;;;;;;0.00;0.00;;;;;;;5.81;59.63;101685.19;7356044;19;20932;-56
2023/03/05 08:19:45;;;;;;;0.00;0.00;;;;;;;5.83;59.54;101693.84;7355611;19;20471;-57
2023/03/05 08:22:10;;;;;;;0.00;0.00;;;;;;;5.64;59.55;101664.25;7357644;19;20029;-56
2023/03/05 08:24:36;;;;;;;0.00;0.00;;;;;;;5.85;59.73;101702.53;7352809;19;20018;-57
2023/03/05 08:27:01;;;;;;;0.00;0.00;;;;;;;5.86;59.77;101694.78;7356358;19;20010;-57
2023/03/05 08:29:27;;;;;;;0.00;0.00;;;;;;;5.85;59.87;101693.03;7350978;19;20255;-56
2023/03/05 08:31:52;;;;;;;0.00;0.00;;;;;;;5.90;59.94;101709.53;7357246;19;20006;-56
2023/03/05 08:34:19;;;;;;;0.10;0.10;;;;;;;5.82;60.14;101682.63;7353984;19;20022;-55
2023/03/05 08:36:45;;;;;;;0.00;0.00;;;;;;;5.82;59.94;101676.56;7356617;19;20022;-56
2023/03/05 08:39:11;;;;;;;0.00;0.00;;;;;;;6.00;60.25;101701.91;7349265;19;20027;-56
2023/03/05 08:41:36;;;;;;;0.10;0.10;;;;;;;5.63;60.20;101637.47;7346179;19;20041;-56
2023/03/05 08:44:02;;;;;;;0.00;0.00;;;;;;;6.06;60.00;101705.41;7348664;19;20010;-56
2023/03/05 08:46:28;;;;;;;0.00;0.00;;;;;;;6.01;60.14;101688.06;7345861;19;20015;-55
2023/03/05 08:48:53;;;;;;;0.10;0.10;;;;;;;6.13;60.16;101698.56;7349805;19;20021;-56
2023/03/05 08:51:24;;;;;;;0.00;0.00;;;;;;;6.10;60.27;101678.69;7347149;19;20568;-56
2023/03/05 08:53:50;;;;;;;0.03;0.03;;;;;;;6.18;60.69;101684.84;7349918;19;20033;-56
2023/03/05 08:56:16;;;;;;;0.10;0.10;;;;;;;6.25;60.03;101675.38;7351088;19;20018;-56
2023/03/05 08:58:43;;;;;;;0.10;0.10;;;;;;;6.30;60.46;101665.94;7350854;19;20483;-56
2023/03/05 09:01:08;;;;;;;0.08;0.08;;;;;;;6.37;60.45;101659.06;7348698;19;20030;-57
2023/03/05 09:03:34;;;;;;;0.10;0.10;;;;;;;6.34;60.47;101635.72;7352451;19;20010;-56
2023/03/05 09:06:01;;;;;;;0.10;0.10;;;;;;;6.56;59.94;101657.53;7350384;19;20034;-58
2023/03/05 09:08:27;;;;;;;0.10;0.10;;;;;;;6.65;60.42;101658.47;7350994;19;20602;-56
2023/03/05 09:10:53;;;;;;;0.10;0.10;;;;;;;6.74;60.49;101657.66;7351519;19;20010;-55
2023/03/05 09:13:19;;;;;;;0.00;0.00;;;;;;;6.84;60.12;101643.03;7344236;19;20943;-56
2023/03/05 09:15:44;;;;;;;0.10;0.10;;;;;;;6.93;60.32;101636.19;7345360;19;20359;-55
2023/03/05 09:18:10;;;;;;;0.00;0.00;;;;;;;7.00;59.89;101635.41;7349909;19;20467;-56
2023/03/05 09:20:37;;;;;;;0.10;0.10;;;;;;;7.08;59.51;101637.16;7347779;19;20338;-56
2023/03/05 09:23:02;;;;;;;0.03;0.03;;;;;;;7.09;59.34;101631.97;7336755;19;20018;-56
2023/03/05 09:25:28;;;;;;;0.10;0.10;;;;;;;7.05;59.54;101627.63;7328902;19;22402;-56
2023/03/05 09:27:53;;;;;;;0.00;0.00;;;;;;;7.09;59.94;101620.72;7321257;19;20002;-56
2023/03/05 09:30:19;;;;;;;0.10;0.10;;;;;;;7.11;59.79;101621.63;7347418;19;20049;-55
2023/03/05 09:32:45;;;;;;;0.00;0.00;;;;;;;7.16;59.99;101622.50;7341395;19;20470;-56
2023/03/05 09:35:10;;;;;;;0.00;0.00;;;;;;;7.20;59.81;101626.88;7339925;19;20035;-56
2023/03/05 09:37:36;;;;;;;0.00;0.00;;;;;;;7.30;59.98;101628.66;7343992;19;20550;-56
2023/03/05 09:40:02;;;;;;;0.10;0.10;;;;;;;7.37;60.40;101620.03;7343624;19;20094;-56
2023/03/05 09:43:01;;;;;;;0.10;0.10;;;;;;;7.50;59.75;101621.84;7340842;19;20013;-56
2023/03/05 09:46:00;;;;;;;0.00;0.00;;;;;;;7.64;59.55;101615.81;7222702;19;2004892;-56
2023/03/05 09:49:13;;;;;;;0.10;0.10;;;;;;;7.74;59.40;101612.38;7237963;19;2004474;-55
2023/03/05 09:51:41;;;;;;;0.00;0.00;;;;;;;7.78;59.68;101606.34;7245242;19;2004222;-55
2023/03/05 09:54:23;;;;;;;0.10;0.10;;;;;;;7.89;60.10;101607.22;7350735;19;20604;-57
2023/03/05 09:57:03;;;;;;;0.10;0.10;;;;;;;8.04;59.74;101599.47;7350362;19;20013;-56
2023/03/05 09:59:44;;;;;;;0.00;0.00;;;;;;;8.18;60.03;101602.09;7352430;19;20450;-56
2023/03/05 10:02:22;;;;;;;0.00;0.00;;;;;;;8.05;59.99;101543.97;7348821;19;20884;-56
2023/03/05 10:04:59;;;;;;;0.00;0.00;;;;;;;8.53;59.79;101589.16;7349224;19;20081;-56
2023/03/05 10:07:25;;;;;;;0.00;0.00;;;;;;;8.67;60.04;101581.34;7354664;19;20002;-56
2023/03/05 10:10:08;;;;;;;0.00;0.00;;;;;;;8.92;59.73;101587.38;7354654;19;20010;-56
2023/03/05 10:12:41;;;;;;;0.00;0.00;;;;;;;9.04;60.07;101569.13;7353093;19;21617;-56
2023/03/05 10:15:14;;;;;;;0.00;0.00;;;;;;;9.34;59.55;101580.31;7355042;19;20218;-59
2023/03/05 10:18:08;;;;;;;0.00;0.00;;;;;;;9.50;59.08;101576.78;7350009;19;20006;-58
2023/03/05 10:20:58;;;;;;;0.00;0.00;;;;;;;9.70;59.12;101568.00;7250253;19;2004226;-56
2023/03/05 10:23:38;;;;;;;0.00;0.00;;;;;;;9.84;58.89;101568.78;7244012;19;2004336;-57
2023/03/05 10:26:19;;;;;;;0.00;0.00;;;;;;;10.02;58.47;101566.06;7354539;19;20011;-57
2023/03/05 10:29:03;;;;;;;0.00;0.00;;;;;;;10.20;58.70;101556.38;7330578;19;20010;-56
2023/03/05 10:31:50;;;;;;;0.00;0.00;;;;;;;10.32;58.00;101558.91;7347475;19;20010;-56
2023/03/05 10:34:39;;;;;;;0.00;0.00;;;;;;;10.44;57.90;101551.00;7351272;19;20091;-57
2023/03/05 10:37:42;;;;;;;0.00;0.00;;;;;;;10.53;57.81;101553.50;7345669;19;20537;-56
2023/03/05 10:40:13;;;;;;;0.00;0.00;;;;;;;10.55;57.38;101551.78;7247285;19;2004409;-57
2023/03/05 10:42:50;;;;;;;0.00;0.00;;;;;;;10.61;57.19;101545.63;7349251;19;20021;-56
2023/03/05 10:45:43;;;;;;;0.00;0.00;;;;;;;10.62;57.21;101535.16;7344698;19;20035;-56
2023/03/05 10:48:23;;;;;;;0.00;0.00;;;;;;;10.65;56.87;101536.88;7249061;19;2004345;-54
2023/03/05 10:50:52;;;;;;;0.00;0.00;;;;;;;10.62;56.84;101529.94;7345133;19;20010;-57
2023/03/05 10:53:31;;;;;;;0.00;0.00;;;;;;;10.77;57.14;101535.88;7353812;19;20010;-56
2023/03/05 10:56:00;;;;;;;0.03;0.03;;;;;;;10.88;57.14;101542.72;7350975;19;20013;-56
2023/03/05 10:58:26;;;;;;;0.00;0.00;;;;;;;11.01;57.08;101535.63;7349011;19;20434;-56
2023/03/05 11:01:04;;;;;;;0.00;0.00;;;;;;;11.15;57.66;101515.44;7350453;19;20011;-56
2023/03/05 11:03:47;;;;;;;0.00;0.00;;;;;;;11.61;58.08;101541.00;7348587;19;20014;-56
2023/03/05 11:06:14;;;;;;;0.10;0.10;;;;;;;11.84;56.96;101529.34;7352171;19;20018;-56
2023/03/05 11:08:40;;;;;;;0.00;0.00;;;;;;;12.13;56.60;101532.41;7352207;19;20074;-58
2023/03/05 11:11:09;;;;;;;0.00;0.00;;;;;;;12.43;55.86;101540.66;7350731;19;20015;-56
2023/03/05 11:13:42;;;;;;;0.00;0.00;;;;;;;12.53;55.31;101521.25;7349613;19;20020;-57
2023/03/05 11:16:17;;;;;;;0.08;0.08;;;;;;;12.70;54.98;101534.06;7347549;19;20022;-56
2023/03/05 11:18:45;;;;;;;0.10;0.10;;;;;;;12.68;53.60;101528.84;7345423;19;20022;-56
2023/03/05 11:21:18;;;;;;;0.00;0.00;;;;;;;12.61;53.99;101515.88;7342379;19;20884;-56
2023/03/05 11:24:03;;;;;;;0.10;0.10;;;;;;;12.67;54.31;101521.88;7342923;19;20090;-57
2023/03/05 11:26:28;;;;;;;0.00;0.00;;;;;;;12.50;52.64;101516.06;7346471;19;21137;-56
2023/03/05 11:28:58;;;;;;;0.00;0.00;;;;;;;12.44;53.11;101521.41;7342232;19;20021;-56
2023/03/05 11:31:30;;;;;;;0.00;0.00;;;;;;;12.40;53.23;101504.03;7343533;19;20035;-57
2023/03/05 11:34:03;;;;;;;0.00;0.00;;;;;;;12.39;54.34;101503.16;7342680;19;20042;-56
2023/03/05 11:36:52;;;;;;;0.00;0.00;;;;;;;12.39;54.24;101497.06;7348640;19;20152;-56